Time;durP1;ratioP1;P1;durP2;ratioP2;P2;SDS_P1;SDS_P2;PMS_P1;PMS_P2;Temp;Humidity;BMP_temperature;BMP_pressure;BME280_temperature;BME280_humidity;BME280_pressure;Samples;Min_cycle;Max_cycle;Signal;HPM_P1;HPM_P2
2022/04/30 00:00:09;;;;;;;22.55;11.20;;;;;;;;;;5075276;28;20060;-67
2022/04/30 00:02:36;;;;;;;21.05;11.50;;;;;;;;;;5075018;28;20124;-67
2022/04/30 00:05:02;;;;;;;21.52;12.50;;;;;;;;;;5074657;28;20071;-67
2022/04/30 00:07:28;;;;;;;;;;;;;;;;;;5075031;28;20049;-67
2022/04/30 00:09:54;;;;;;;23.98;12.20;;;;;;;;;;5074654;28;20368;-67
2022/04/30 00:12:21;;;;;;;23.48;12.25;;;;;;;;;;5074585;28;20053;-67
2022/04/30 00:14:47;;;;;;;19.98;11.75;;;;;;;;;;5074476;28;20408;-67
2022/04/30 00:17:14;;;;;;;21.75;13.02;;;;;;;;;;5073155;28;20048;-67
2022/04/30 00:19:40;;;;;;;22.48;12.13;;;;;;;;;;5075129;28;20389;-67
2022/04/30 00:22:06;;;;;;;24.50;12.23;;;;;;;;;;5057498;28;20056;-67
2022/04/30 00:24:32;;;;;;;;;;;;;;;;;;5075261;28;20040;-67
2022/04/30 00:27:01;;;;;;;23.15;12.52;;;;;;;;;;5074087;28;19943;-67
2022/04/30 00:29:30;;;;;;;19.45;11.45;;;;;;;;;;5074173;28;20530;-66
2022/04/30 00:31:57;;;;;;;19.35;11.27;;;;;;;;;;5073173;28;20047;-67
2022/04/30 00:34:23;;;;;;;20.00;11.73;;;;;;;;;;5074051;28;20090;-67
2022/04/30 00:36:49;;;;;;;20.42;11.90;;;;;;;;;;5072823;28;20560;-67
2022/04/30 00:39:15;;;;;;;24.45;11.55;;;;;;;;;;5074687;28;20090;-67
2022/04/30 00:41:42;;;;;;;20.15;10.85;;;;;;;;;;5072833;28;20051;-67
2022/04/30 00:44:09;;;;;;;19.58;11.23;;;;;;;;;;5073649;28;20044;-67
2022/04/30 00:46:35;;;;;;;22.50;11.45;;;;;;;;;;5073925;28;20044;-67
2022/04/30 00:49:02;;;;;;;19.60;10.73;;;;;;;;;;5073910;28;20102;-68
2022/04/30 00:51:28;;;;;;;17.88;10.80;;;;;;;;;;5074547;28;20098;-67
2022/04/30 00:53:55;;;;;;;19.75;11.30;;;;;;;;;;5072774;28;20045;-67
2022/04/30 00:56:29;;;;;;;18.13;10.23;;;;;;;;;;5073669;28;20060;-67
2022/04/30 00:58:59;;;;;;;20.25;10.52;;;;;;;;;;5074583;28;20088;-67
2022/04/30 01:01:25;;;;;;;20.88;10.27;;;;;;;;;;5073863;28;20052;-67
2022/04/30 01:03:51;;;;;;;20.00;10.48;;;;;;;;;;5074247;28;20052;-67
2022/04/30 01:06:21;;;;;;;17.20;10.35;;;;;;;;;;5056586;28;20101;-67
2022/04/30 01:08:48;;;;;;;16.30;9.90;;;;;;;;;;5073709;28;20393;-67
2022/04/30 01:11:15;;;;;;;19.92;10.52;;;;;;;;;;5072336;28;20498;-67
2022/04/30 01:13:41;;;;;;;22.58;10.05;;;;;;;;;;5072980;28;20102;-67
2022/04/30 01:16:08;;;;;;;19.60;10.15;;;;;;;;;;5073397;28;20464;-67
2022/04/30 01:18:34;;;;;;;17.52;9.88;;;;;;;;;;5073807;28;20542;-67
2022/04/30 01:21:04;;;;;;;20.33;9.77;;;;;;;;;;5072435;28;20048;-67
2022/04/30 01:23:31;;;;;;;19.38;10.43;;;;;;;;;;5055395;28;20419;-67
2022/04/30 01:25:57;;;;;;;17.75;10.15;;;;;;;;;;5072496;28;20051;-67
2022/04/30 01:28:23;;;;;;;17.98;10.00;;;;;;;;;;5073326;28;20041;-67
2022/04/30 01:30:49;;;;;;;16.45;8.32;;;;;;;;;;5072378;28;20476;-67
2022/04/30 01:38:49;;;;;;;18.27;10.32;;;;;;;;;;5053338;28;20091;-67
2022/04/30 01:41:16;;;;;;;21.95;9.68;;;;;;;;;;5073754;28;20048;-67
2022/04/30 01:43:43;;;;;;;21.10;9.85;;;;;;;;;;5055585;28;20131;-67
2022/04/30 01:46:09;;;;;;;19.35;10.25;;;;;;;;;;5073193;28;20048;-68
2022/04/30 01:48:36;;;;;;;19.05;9.70;;;;;;;;;;5073207;28;20087;-67
2022/04/30 01:51:02;;;;;;;20.27;10.20;;;;;;;;;;5073198;28;20044;-67
2022/04/30 01:53:28;;;;;;;17.83;10.48;;;;;;;;;;5055607;28;20472;-67
2022/04/30 01:55:54;;;;;;;16.73;10.23;;;;;;;;;;5073136;28;20044;-67
2022/04/30 01:58:20;;;;;;;18.58;10.10;;;;;;;;;;5071606;28;20140;-67
2022/04/30 02:00:46;;;;;;;15.45;8.88;;;;;;;;;;5073032;28;20485;-67
2022/04/30 02:03:12;;;;;;;20.33;9.10;;;;;;;;;;5071991;28;20615;-67
2022/04/30 02:05:40;;;;;;;20.05;10.27;;;;;;;;;;5073077;28;20139;-67
2022/04/30 02:08:12;;;;;;;19.33;9.20;;;;;;;;;;5072012;28;20122;-67
2022/04/30 02:10:39;;;;;;;19.05;10.20;;;;;;;;;;5072017;28;20056;-69
2022/04/30 02:13:09;;;;;;;15.48;9.60;;;;;;;;;;5073273;28;20098;-66
2022/04/30 02:15:46;;;;;;;16.42;9.55;;;;;;;;;;5073066;28;20044;-67
2022/04/30 02:18:13;;;;;;;18.92;9.77;;;;;;;;;;5075878;28;20550;-67
2022/04/30 02:20:43;;;;;;;18.48;10.07;;;;;;;;;;5075517;28;20102;-67
2022/04/30 02:23:09;;;;;;;18.02;9.75;;;;;;;;;;5076708;28;20128;-67
2022/04/30 02:25:36;;;;;;;17.02;9.32;;;;;;;;;;5075343;28;20044;-67
2022/04/30 02:28:04;;;;;;;18.45;9.88;;;;;;;;;;5075314;28;20396;-67
2022/04/30 02:30:31;;;;;;;16.77;9.43;;;;;;;;;;5076341;28;20088;-67
2022/04/30 02:33:01;;;;;;;19.10;9.80;;;;;;;;;;5077013;28;20106;-67
2022/04/30 02:35:29;;;;;;;20.65;10.35;;;;;;;;;;5075190;28;20091;-68
2022/04/30 02:37:57;;;;;;;15.60;9.77;;;;;;;;;;5075179;28;20048;-69
2022/04/30 02:40:24;;;;;;;15.45;9.43;;;;;;;;;;5076217;28;20135;-68
2022/04/30 02:42:51;;;;;;;19.45;9.80;;;;;;;;;;5076538;28;20503;-67
2022/04/30 02:45:17;;;;;;;;;;;;;;;;;;5075412;28;20048;-67
2022/04/30 02:47:45;;;;;;;17.55;9.70;;;;;;;;;;5075307;28;19920;-67
2022/04/30 02:50:13;;;;;;;20.50;9.85;;;;;;;;;;5058491;28;20055;-67
2022/04/30 02:52:43;;;;;;;15.65;9.40;;;;;;;;;;5075401;28;20251;-67
2022/04/30 02:55:09;;;;;;;18.95;10.00;;;;;;;;;;5076095;28;20507;-67
2022/04/30 02:57:35;;;;;;;;;;;;;;;;;;5076368;28;20060;-67
2022/04/30 03:00:04;;;;;;;18.77;9.30;;;;;;;;;;5076020;28;19920;-67
2022/04/30 03:02:30;;;;;;;16.63;9.52;;;;;;;;;;5076668;28;20048;-67
2022/04/30 03:04:56;;;;;;;19.50;10.10;;;;;;;;;;5075982;28;20084;-67
2022/04/30 03:07:22;;;;;;;20.30;9.95;;;;;;;;;;5075797;28;20090;-67
2022/04/30 03:09:49;;;;;;;18.42;9.88;;;;;;;;;;5076099;28;20053;-67
2022/04/30 03:12:15;;;;;;;19.13;9.15;;;;;;;;;;5075509;28;20508;-67
2022/04/30 03:14:42;;;;;;;17.70;9.57;;;;;;;;;;5076535;28;20044;-67
2022/04/30 03:22:38;;;;;;;15.32;9.32;;;;;;;;;;5061384;28;20056;-67
2022/04/30 03:25:05;;;;;;;19.63;9.77;;;;;;;;;;5075665;28;20051;-67
2022/04/30 03:27:32;;;;;;;20.88;10.18;;;;;;;;;;5075392;28;20040;-67
2022/04/30 03:29:58;;;;;;;19.40;9.82;;;;;;;;;;5074316;28;20053;-67
2022/04/30 03:32:24;;;;;;;16.73;9.00;;;;;;;;;;5075390;28;20481;-67
2022/04/30 03:34:51;;;;;;;17.88;9.25;;;;;;;;;;5075315;28;20412;-67
2022/04/30 03:37:18;;;;;;;15.20;9.65;;;;;;;;;;5075593;28;20048;-67
2022/04/30 03:39:44;;;;;;;16.45;9.60;;;;;;;;;;5075715;28;20084;-67
2022/04/30 03:42:10;;;;;;;15.93;9.10;;;;;;;;;;5074320;28;20052;-67
2022/04/30 03:44:36;;;;;;;17.48;10.25;;;;;;;;;;5075033;28;20084;-67
2022/04/30 03:47:02;;;;;;;18.20;9.35;;;;;;;;;;5075126;28;20040;-67
2022/04/30 03:49:28;;;;;;;15.40;9.77;;;;;;;;;;5074989;28;20048;-67
2022/04/30 03:51:54;;;;;;;16.77;9.93;;;;;;;;;;5074782;28;20045;-67
2022/04/30 03:54:21;;;;;;;17.27;9.20;;;;;;;;;;5073544;28;20377;-67
2022/04/30 03:56:47;;;;;;;;;;;;;;;;;;5074667;28;20044;-67
2022/04/30 03:59:13;;;;;;;16.77;9.93;;;;;;;;;;5074448;28;20111;-67
2022/04/30 04:01:40;;;;;;;18.60;10.50;;;;;;;;;;5074294;28;20504;-67
2022/04/30 04:04:06;;;;;;;18.13;10.02;;;;;;;;;;5073988;28;20162;-67
2022/04/30 04:06:32;;;;;;;17.30;9.93;;;;;;;;;;5074173;28;20265;-67
2022/04/30 04:08:59;;;;;;;16.55;9.85;;;;;;;;;;5073259;28;20074;-67
2022/04/30 04:11:26;;;;;;;16.42;9.70;;;;;;;;;;5073197;28;20404;-67
2022/04/30 04:19:24;;;;;;;18.67;10.43;;;;;;;;;;5072396;28;20060;-67
2022/04/30 04:21:51;;;;;;;18.70;9.95;;;;;;;;;;5072094;28;20131;-67
2022/04/30 04:27:02;;;;;;;20.40;10.93;;;;;;;;;;5072042;28;20056;-67
2022/04/30 04:29:28;;;;;;;18.15;10.43;;;;;;;;;;5072372;28;20044;-67
2022/04/30 04:31:54;;;;;;;20.23;11.07;;;;;;;;;;5072199;28;20044;-67
2022/04/30 04:34:20;;;;;;;19.52;11.60;;;;;;;;;;5072897;28;20052;-66
2022/04/30 04:36:46;;;;;;;21.60;10.73;;;;;;;;;;5071882;28;20041;-67
2022/04/30 04:39:14;;;;;;;18.42;10.55;;;;;;;;;;5072103;28;20049;-67
2022/04/30 04:41:43;;;;;;;20.38;10.80;;;;;;;;;;5070700;28;20052;-67
2022/04/30 04:44:10;;;;;;;18.58;11.00;;;;;;;;;;5071643;28;20466;-67
2022/04/30 04:46:36;;;;;;;;;;;;;;;;;;5072516;28;20384;-66
2022/04/30 04:49:02;;;;;;;21.85;11.15;;;;;;;;;;5071895;28;19920;-67
2022/04/30 04:51:28;;;;;;;;;;;;;;;;;;5072343;28;20048;-67
2022/04/30 04:53:55;;;;;;;21.50;10.93;;;;;;;;;;5072594;28;19920;-67
2022/04/30 04:56:21;;;;;;;18.58;11.02;;;;;;;;;;5072055;28;20044;-67
2022/04/30 04:58:47;;;;;;;20.17;12.13;;;;;;;;;;5072228;28;20391;-67
2022/04/30 05:01:13;;;;;;;19.58;11.40;;;;;;;;;;5071791;28;20063;-67
2022/04/30 05:03:39;;;;;;;18.30;11.63;;;;;;;;;;5070503;28;20052;-67
2022/04/30 05:06:05;;;;;;;20.40;11.30;;;;;;;;;;5070574;28;20498;-67
2022/04/30 05:08:31;;;;;;;18.38;11.73;;;;;;;;;;5070677;28;20045;-67
2022/04/30 05:10:57;;;;;;;22.30;12.05;;;;;;;;;;5071638;28;20060;-67
2022/04/30 05:13:23;;;;;;;20.83;12.70;;;;;;;;;;5071654;28;20105;-67
2022/04/30 05:15:49;;;;;;;22.85;11.98;;;;;;;;;;5070401;28;20048;-68
2022/04/30 05:18:15;;;;;;;21.45;12.23;;;;;;;;;;5054532;28;20056;-67
2022/04/30 05:20:42;;;;;;;20.42;11.63;;;;;;;;;;5071367;28;20439;-68
2022/04/30 05:23:08;;;;;;;23.42;11.60;;;;;;;;;;5071440;28;20051;-68
2022/04/30 05:25:35;;;;;;;23.50;11.05;;;;;;;;;;5071397;28;20052;-68
2022/04/30 05:28:01;;;;;;;18.58;11.38;;;;;;;;;;5070714;28;20128;-68
2022/04/30 05:30:27;;;;;;;20.83;11.60;;;;;;;;;;5071375;28;20484;-68
2022/04/30 05:32:53;;;;;;;18.25;11.43;;;;;;;;;;5069413;28;20508;-68
2022/04/30 05:35:19;;;;;;;20.13;11.95;;;;;;;;;;5071543;28;20037;-68
2022/04/30 05:37:45;;;;;;;23.85;12.38;;;;;;;;;;5071036;28;20492;-68
2022/04/30 05:40:11;;;;;;;19.70;11.95;;;;;;;;;;5071285;28;20055;-68
2022/04/30 05:42:37;;;;;;;21.40;11.90;;;;;;;;;;5069689;28;20051;-68
2022/04/30 05:45:04;;;;;;;18.58;11.57;;;;;;;;;;5072020;28;20354;-68
2022/04/30 05:47:30;;;;;;;18.73;11.25;;;;;;;;;;5071092;28;20044;-67
2022/04/30 05:49:56;;;;;;;20.65;11.73;;;;;;;;;;5070267;28;20076;-67
2022/04/30 05:52:22;;;;;;;18.63;11.10;;;;;;;;;;5073036;28;20178;-67
2022/04/30 05:54:48;;;;;;;21.52;12.00;;;;;;;;;;5075610;28;20059;-67
2022/04/30 05:57:14;;;;;;;20.45;11.60;;;;;;;;;;5074728;28;20056;-66
2022/04/30 05:59:40;;;;;;;21.20;11.55;;;;;;;;;;5074776;28;20567;-67
2022/04/30 06:02:06;;;;;;;24.08;11.45;;;;;;;;;;5074947;28;20123;-67
2022/04/30 06:04:32;;;;;;;21.35;12.02;;;;;;;;;;5073498;28;20083;-67
2022/04/30 06:06:58;;;;;;;17.20;11.38;;;;;;;;;;5074427;28;20484;-67
2022/04/30 06:09:25;;;;;;;24.60;12.77;;;;;;;;;;5074049;28;20048;-66
2022/04/30 06:11:51;;;;;;;;;;;;;;;;;;5075173;28;20198;-67
2022/04/30 06:14:17;;;;;;;22.65;11.45;;;;;;;;;;5074782;28;19946;-67
2022/04/30 06:16:43;;;;;;;21.25;10.88;;;;;;;;;;5074774;28;20428;-68
2022/04/30 06:19:09;;;;;;;20.23;11.50;;;;;;;;;;5074754;28;20368;-66
2022/04/30 06:21:36;;;;;;;17.63;10.65;;;;;;;;;;5074585;28;20098;-67
2022/04/30 06:24:02;;;;;;;;;;;;;;;;;;5057885;28;20056;-67
2022/04/30 06:26:28;;;;;;;21.85;11.95;;;;;;;;;;5074609;28;20319;-67
2022/04/30 06:28:55;;;;;;;20.90;11.30;;;;;;;;;;5075059;28;20046;-66
2022/04/30 06:31:22;;;;;;;22.42;11.98;;;;;;;;;;5074460;28;20049;-69
2022/04/30 06:33:52;;;;;;;18.95;11.60;;;;;;;;;;5074756;28;20049;-67
2022/04/30 06:36:18;;;;;;;20.20;11.85;;;;;;;;;;5073975;28;20500;-66
2022/04/30 06:38:44;;;;;;;21.35;10.88;;;;;;;;;;5073456;28;20491;-67
2022/04/30 06:41:10;;;;;;;22.02;11.75;;;;;;;;;;5074120;28;20492;-66
2022/04/30 06:43:36;;;;;;;22.33;11.88;;;;;;;;;;5074914;28;20051;-66
2022/04/30 06:46:02;;;;;;;20.70;11.82;;;;;;;;;;5074694;28;20045;-67
2022/04/30 06:48:29;;;;;;;20.60;11.93;;;;;;;;;;5074201;28;20103;-67
2022/04/30 06:50:55;;;;;;;19.67;12.27;;;;;;;;;;5072868;28;20053;-67
2022/04/30 06:58:54;;;;;;;21.65;12.43;;;;;;;;;;5074812;28;20060;-67
2022/04/30 07:01:43;;;;;;;24.15;12.65;;;;;;;;;;5074011;28;20068;-67
2022/04/30 07:04:10;;;;;;;22.27;11.98;;;;;;;;;;5072612;28;20472;-67
2022/04/30 07:06:37;;;;;;;25.75;12.10;;;;;;;;;;5073799;28;20492;-67
2022/04/30 07:09:04;;;;;;;20.90;11.98;;;;;;;;;;5073910;28;20048;-66
2022/04/30 07:11:30;;;;;;;20.80;11.75;;;;;;;;;;5072713;28;20055;-67
2022/04/30 07:13:57;;;;;;;23.67;12.25;;;;;;;;;;5073901;28;20488;-67
2022/04/30 07:16:23;;;;;;;21.52;12.43;;;;;;;;;;5073578;28;20522;-66
2022/04/30 07:18:49;;;;;;;24.38;12.05;;;;;;;;;;5073812;28;20044;-66
2022/04/30 07:21:15;;;;;;;19.60;11.45;;;;;;;;;;5073588;28;20462;-66
2022/04/30 07:23:41;;;;;;;23.23;11.75;;;;;;;;;;5072680;28;20159;-66
2022/04/30 07:26:07;;;;;;;27.35;12.02;;;;;;;;;;5073963;28;20087;-67
2022/04/30 07:28:35;;;;;;;18.38;12.07;;;;;;;;;;5073569;28;20084;-66
2022/04/30 07:31:02;;;;;;;21.92;11.63;;;;;;;;;;5073560;28;20472;-67
2022/04/30 07:33:28;;;;;;;22.60;13.07;;;;;;;;;;5072095;28;20071;-66
2022/04/30 07:35:55;;;;;;;22.00;12.93;;;;;;;;;;5072082;28;20051;-67
2022/04/30 07:38:22;;;;;;;24.95;13.00;;;;;;;;;;5073256;28;20052;-66
2022/04/30 07:40:48;;;;;;;21.55;11.52;;;;;;;;;;5073672;28;20382;-66
2022/04/30 07:43:14;;;;;;;19.83;11.05;;;;;;;;;;5071599;28;20439;-66
2022/04/30 07:45:40;;;;;;;18.83;10.75;;;;;;;;;;5073085;28;20052;-66
2022/04/30 07:48:06;;;;;;;26.17;12.40;;;;;;;;;;5072729;28;20135;-66
2022/04/30 07:50:36;;;;;;;21.15;12.18;;;;;;;;;;5072971;28;20377;-67
2022/04/30 07:53:06;;;;;;;22.35;11.98;;;;;;;;;;5071868;28;20138;-67
2022/04/30 07:55:32;;;;;;;21.25;11.63;;;;;;;;;;5072963;28;20088;-66
2022/04/30 07:57:59;;;;;;;18.25;11.48;;;;;;;;;;5073222;28;20053;-67
2022/04/30 08:00:26;;;;;;;23.60;12.20;;;;;;;;;;5071681;28;20500;-66
2022/04/30 08:02:55;;;;;;;22.83;12.68;;;;;;;;;;5073172;28;20044;-66
2022/04/30 08:05:21;;;;;;;22.30;11.98;;;;;;;;;;5072791;28;20535;-66
2022/04/30 08:07:47;;;;;;;24.60;12.52;;;;;;;;;;5071418;28;20094;-67
2022/04/30 08:10:13;;;;;;;22.30;12.13;;;;;;;;;;5072710;28;20473;-67
2022/04/30 08:12:39;;;;;;;25.13;12.18;;;;;;;;;;5072591;28;20505;-67
2022/04/30 08:15:05;;;;;;;20.42;11.60;;;;;;;;;;5072296;28;20373;-67
2022/04/30 08:17:31;;;;;;;20.75;11.50;;;;;;;;;;5072404;28;20045;-66
2022/04/30 08:19:57;;;;;;;23.48;12.65;;;;;;;;;;5072295;28;20044;-67
2022/04/30 08:22:23;;;;;;;22.77;12.18;;;;;;;;;;5072283;28;20446;-67
2022/04/30 08:24:50;;;;;;;25.17;12.13;;;;;;;;;;5072265;28;20052;-67
2022/04/30 08:27:16;;;;;;;22.40;11.75;;;;;;;;;;5071942;28;20052;-66
2022/04/30 08:29:42;;;;;;;20.45;11.43;;;;;;;;;;5071234;28;20044;-67
2022/04/30 08:32:08;;;;;;;19.50;11.10;;;;;;;;;;5070931;28;20044;-67
2022/04/30 08:34:34;;;;;;;22.05;11.95;;;;;;;;;;5070955;28;20246;-66
2022/04/30 08:37:00;;;;;;;20.48;11.73;;;;;;;;;;5072064;28;20053;-66
2022/04/30 08:39:26;;;;;;;19.70;11.63;;;;;;;;;;5070753;28;20400;-67
2022/04/30 08:41:52;;;;;;;23.55;11.40;;;;;;;;;;5072102;28;20049;-67
2022/04/30 08:44:19;;;;;;;22.75;10.70;;;;;;;;;;5072398;28;20055;-66
2022/04/30 08:46:45;;;;;;;19.92;8.57;;;;;;;;;;5071669;28;20083;-66
2022/04/30 08:49:12;;;;;;;17.20;9.85;;;;;;;;;;5072199;28;20372;-67
2022/04/30 08:51:38;;;;;;;;;;;;;;;;;;5072249;28;20045;-66
2022/04/30 08:54:04;;;;;;;17.33;8.98;;;;;;;;;;5071623;28;19924;-68
2022/04/30 08:56:30;;;;;;;15.77;8.75;;;;;;;;;;5071817;28;20106;-67
2022/04/30 08:59:02;;;;;;;20.48;8.65;;;;;;;;;;5071830;28;20095;-67
2022/04/30 09:01:28;;;;;;;17.63;9.45;;;;;;;;;;5071896;28;20075;-67
2022/04/30 09:03:56;;;;;;;19.88;9.73;;;;;;;;;;5071159;28;20469;-67
2022/04/30 09:06:22;;;;;;;22.95;9.05;;;;;;;;;;5071590;28;20040;-67
2022/04/30 09:08:51;;;;;;;21.48;9.82;;;;;;;;;;5072052;28;20051;-67
2022/04/30 09:11:18;;;;;;;18.90;9.80;;;;;;;;;;5071550;28;20048;-67
2022/04/30 09:13:49;;;;;;;19.58;10.40;;;;;;;;;;5071545;28;20051;-67
2022/04/30 09:16:21;;;;;;;20.00;10.02;;;;;;;;;;5071834;28;20067;-67
2022/04/30 09:18:48;;;;;;;18.65;10.18;;;;;;;;;;5071639;28;20096;-67
2022/04/30 09:21:15;;;;;;;21.13;10.32;;;;;;;;;;5070556;28;20048;-67
2022/04/30 09:23:42;;;;;;;18.27;10.43;;;;;;;;;;5071437;28;20071;-67
2022/04/30 09:26:08;;;;;;;17.58;10.32;;;;;;;;;;5070587;28;20472;-66
2022/04/30 09:28:37;;;;;;;20.25;10.63;;;;;;;;;;5071041;28;20052;-67
2022/04/30 09:31:11;;;;;;;17.63;9.25;;;;;;;;;;5071197;28;20066;-66
2022/04/30 09:33:59;;;;;;;16.00;9.27;;;;;;;;;;5071723;28;20052;-66
2022/04/30 09:39:15;;;;;;;15.57;9.00;;;;;;;;;;5071283;28;20044;-70
2022/04/30 09:41:42;;;;;;;16.27;9.40;;;;;;;;;;5071065;28;20119;-69
2022/04/30 09:44:08;;;;;;;;;;;;;;;;;;5054109;28;20063;-70
2022/04/30 09:46:37;;;;;;;16.13;9.88;;;;;;;;;;5071112;28;20084;-69
2022/04/30 09:54:37;;;;;;;22.30;11.45;;;;;;;;;;5071843;28;20078;-70
2022/04/30 09:57:05;;;;;;;18.65;10.55;;;;;;;;;;5070840;28;20064;-71
2022/04/30 09:59:34;;;;;;;19.30;9.70;;;;;;;;;;5071576;28;20172;-69
2022/04/30 10:02:01;;;;;;;18.48;9.82;;;;;;;;;;5070798;28;20083;-69
2022/04/30 10:04:28;;;;;;;16.80;9.70;;;;;;;;;;5070909;28;20044;-68
2022/04/30 10:06:54;;;;;;;20.88;10.13;;;;;;;;;;5070981;28;20044;-69
2022/04/30 10:09:24;;;;;;;18.88;9.82;;;;;;;;;;5071071;28;20135;-70
2022/04/30 10:11:56;;;;;;;16.45;8.75;;;;;;;;;;5070983;28;20121;-69
2022/04/30 10:14:41;;;;;;;18.77;8.77;;;;;;;;;;5052871;28;20135;-69
2022/04/30 10:17:17;;;;;;;20.60;9.18;;;;;;;;;;5071513;28;20052;-69
2022/04/30 10:20:22;;;;;;;19.00;9.05;;;;;;;;;;5069694;28;20046;-69
2022/04/30 10:22:55;;;;;;;14.57;7.78;;;;;;;;;;5069803;28;20527;-69
2022/04/30 10:25:32;;;;;;;15.65;8.13;;;;;;;;;;5069540;28;20073;-69
2022/04/30 10:27:58;;;;;;;15.30;8.10;;;;;;;;;;5053657;28;20480;-71
2022/04/30 10:30:27;;;;;;;16.25;8.10;;;;;;;;;;5070345;28;20080;-69
2022/04/30 10:33:06;;;;;;;16.00;8.23;;;;;;;;;;5069457;28;20052;-78
2022/04/30 10:35:36;;;;;;;18.58;8.40;;;;;;;;;;5070594;28;20048;-71
2022/04/30 10:38:09;;;;;;;18.25;8.10;;;;;;;;;;5071527;28;20045;-70
2022/04/30 10:40:43;;;;;;;17.13;7.90;;;;;;;;;;5073388;28;20451;-72
2022/04/30 10:43:15;;;;;;;15.30;8.10;;;;;;;;;;5074961;28;20049;-69
2022/04/30 10:45:41;;;;;;;16.02;8.98;;;;;;;;;;5074657;28;20408;-69
2022/04/30 10:48:07;;;;;;;15.77;8.88;;;;;;;;;;5074733;28;20406;-69
2022/04/30 10:50:33;;;;;;;15.15;7.85;;;;;;;;;;5074035;28;20048;-70
2022/04/30 10:53:00;;;;;;;14.65;8.05;;;;;;;;;;5073091;28;20117;-70
2022/04/30 10:55:27;;;;;;;17.98;8.98;;;;;;;;;;5072843;28;20492;-72
2022/04/30 10:57:54;;;;;;;16.33;8.90;;;;;;;;;;5072914;28;20052;-68
2022/04/30 11:00:23;;;;;;;18.95;8.68;;;;;;;;;;5073913;28;20064;-68
2022/04/30 11:02:49;;;;;;;17.65;8.57;;;;;;;;;;5073919;28;20580;-67
2022/04/30 11:05:22;;;;;;;16.20;8.57;;;;;;;;;;5074377;28;20045;-67
2022/04/30 11:07:48;;;;;;;18.50;9.88;;;;;;;;;;5073810;28;20045;-67
2022/04/30 11:10:15;;;;;;;;;;;;;;;;;;5074127;28;20052;-69
2022/04/30 11:12:41;;;;;;;17.52;10.30;;;;;;;;;;5073689;28;19921;-69
2022/04/30 11:15:07;;;;;;;18.88;10.52;;;;;;;;;;5073759;28;20089;-68
2022/04/30 11:17:33;;;;;;;;;;;;;;;;;;5056869;28;20045;-67
2022/04/30 11:20:01;;;;;;;19.60;10.80;;;;;;;;;;5072942;28;19920;-66
2022/04/30 11:22:27;;;;;;;21.48;10.50;;;;;;;;;;5073978;28;20053;-67
2022/04/30 11:24:57;;;;;;;17.95;10.40;;;;;;;;;;5073557;28;20051;-67
2022/04/30 11:27:24;;;;;;;21.00;11.25;;;;;;;;;;5074029;28;20123;-68
2022/04/30 11:29:51;;;;;;;23.25;11.50;;;;;;;;;;5073292;28;20052;-67
2022/04/30 11:32:26;;;;;;;18.27;10.20;;;;;;;;;;5073901;28;20052;-67
2022/04/30 11:34:56;;;;;;;16.58;9.57;;;;;;;;;;5074138;28;20368;-70
2022/04/30 11:37:22;;;;;;;16.27;8.82;;;;;;;;;;5073074;28;20045;-69
2022/04/30 11:39:48;;;;;;;;;;;;;;;;;;5073554;28;20048;-68
2022/04/30 11:42:15;;;;;;;18.23;9.43;;;;;;;;;;5073108;28;19928;-68
2022/04/30 11:44:41;;;;;;;17.60;9.57;;;;;;;;;;5073634;28;20090;-68
2022/04/30 11:47:11;;;;;;;21.40;9.13;;;;;;;;;;5073114;28;20476;-68
2022/04/30 11:49:37;;;;;;;17.00;8.90;;;;;;;;;;5071984;28;20369;-70
2022/04/30 11:52:04;;;;;;;15.43;7.97;;;;;;;;;;5073501;28;20060;-70
2022/04/30 11:54:30;;;;;;;16.73;8.18;;;;;;;;;;5072791;28;20044;-68
2022/04/30 11:57:00;;;;;;;14.90;7.00;;;;;;;;;;5071483;28;20108;-69
2022/04/30 11:59:29;;;;;;;15.95;7.25;;;;;;;;;;5073517;28;20057;-75
2022/04/30 12:01:55;;;;;;;14.15;7.75;;;;;;;;;;5072726;28;20099;-68
2022/04/30 12:04:22;;;;;;;20.83;7.68;;;;;;;;;;5072859;28;20045;-69
2022/04/30 12:06:57;;;;;;;13.57;7.03;;;;;;;;;;5072687;28;20070;-66
2022/04/30 12:09:28;;;;;;;13.57;6.50;;;;;;;;;;5071916;28;20048;-69
2022/04/30 12:11:54;;;;;;;12.30;6.70;;;;;;;;;;5072503;28;20423;-68
2022/04/30 12:14:21;;;;;;;13.07;7.20;;;;;;;;;;5072668;28;20054;-68
2022/04/30 12:16:48;;;;;;;14.35;7.10;;;;;;;;;;5072427;28;20048;-69
2022/04/30 12:25:32;;;;;;;17.50;7.93;;;;;;;;;;5010275;28;20061;-67
2022/04/30 12:28:06;;;;;;;17.27;8.40;;;;;;;;;;5010339;28;20060;-67
2022/04/30 12:30:33;;;;;;;14.23;8.82;;;;;;;;;;5042072;28;20063;-68
2022/04/30 12:33:00;;;;;;;16.48;9.00;;;;;;;;;;5072429;28;20114;-67
2022/04/30 12:35:34;;;;;;;18.63;9.00;;;;;;;;;;5070966;28;20051;-66
2022/04/30 12:38:04;;;;;;;15.55;8.25;;;;;;;;;;5072308;28;20048;-67
2022/04/30 12:40:31;;;;;;;16.65;8.80;;;;;;;;;;5072010;28;20052;-74
2022/04/30 12:42:56;;;;;;;;;;;;;;;;;;5071959;28;20453;-70
2022/04/30 12:45:23;;;;;;;16.23;8.43;;;;;;;;;;5072786;28;20007;-70
2022/04/30 12:47:49;;;;;;;16.15;8.25;;;;;;;;;;5070786;28;20375;-68
2022/04/30 12:50:16;;;;;;;15.32;7.50;;;;;;;;;;5071964;28;20055;-67
2022/04/30 12:52:42;;;;;;;14.75;7.13;;;;;;;;;;5072086;28;20131;-67
2022/04/30 12:55:11;;;;;;;13.30;7.25;;;;;;;;;;5071945;28;20059;-67
2022/04/30 12:57:37;;;;;;;15.02;7.32;;;;;;;;;;5072014;28;20063;-67
2022/04/30 13:00:04;;;;;;;16.08;7.78;;;;;;;;;;5072162;28;20051;-68
2022/04/30 13:02:30;;;;;;;14.98;8.02;;;;;;;;;;5071402;28;20106;-68
2022/04/30 13:04:56;;;;;;;16.13;8.00;;;;;;;;;;5071532;28;20055;-66
2022/04/30 13:07:22;;;;;;;14.60;7.30;;;;;;;;;;5071605;28;20476;-67
2022/04/30 13:15:18;;;;;;;16.83;7.80;;;;;;;;;;5071760;28;20052;-67
2022/04/30 13:17:44;;;;;;;16.15;7.93;;;;;;;;;;5071665;28;20047;-67
2022/04/30 13:20:11;;;;;;;18.02;7.72;;;;;;;;;;5071532;28;20056;-67
2022/04/30 13:22:38;;;;;;;19.23;8.43;;;;;;;;;;5070748;28;20056;-67
2022/04/30 13:25:04;;;;;;;;;;;;;;;;;;5071844;28;20097;-67
2022/04/30 13:27:31;;;;;;;17.73;8.38;;;;;;;;;;5071374;28;19924;-67
2022/04/30 13:29:57;;;;;;;17.48;8.52;;;;;;;;;;5071807;28;20511;-67
2022/04/30 13:32:23;;;;;;;21.05;10.57;;;;;;;;;;5070697;28;20047;-67
2022/04/30 13:34:49;;;;;;;16.52;7.72;;;;;;;;;;5071313;28;20201;-66
2022/04/30 13:37:15;;;;;;;15.95;7.53;;;;;;;;;;5071260;28;20483;-67
2022/04/30 13:39:42;;;;;;;13.93;7.88;;;;;;;;;;5071165;28;20048;-67
2022/04/30 13:42:08;;;;;;;16.23;7.38;;;;;;;;;;5071598;28;20040;-67
2022/04/30 13:44:34;;;;;;;;;;;;;;;;;;5071748;28;20472;-67
2022/04/30 13:47:00;;;;;;;14.13;7.00;;;;;;;;;;5071515;28;19967;-67
2022/04/30 13:49:27;;;;;;;16.25;7.97;;;;;;;;;;5070951;28;20132;-66
2022/04/30 13:51:53;;;;;;;14.63;7.78;;;;;;;;;;5071244;28;20056;-66
2022/04/30 13:54:19;;;;;;;15.82;8.10;;;;;;;;;;5071172;28;20044;-66
2022/04/30 13:56:45;;;;;;;14.30;7.60;;;;;;;;;;5070739;28;20106;-67
2022/04/30 13:59:13;;;;;;;15.02;7.68;;;;;;;;;;5070963;28;20052;-67
2022/04/30 14:01:39;;;;;;;15.35;7.82;;;;;;;;;;5070618;28;20063;-66
2022/04/30 14:04:05;;;;;;;;;;;;;;;;;;5071407;28;20070;-66
2022/04/30 14:06:31;;;;;;;18.17;8.27;;;;;;;;;;5070959;28;20020;-66
2022/04/30 14:08:57;;;;;;;14.55;8.57;;;;;;;;;;5070958;28;20171;-67
2022/04/30 14:11:23;;;;;;;14.52;8.35;;;;;;;;;;5071361;28;20119;-68
2022/04/30 14:16:34;;;;;;;18.15;8.15;;;;;;;;;;5074713;28;20440;-66
2022/04/30 14:19:00;;;;;;;15.20;7.30;;;;;;;;;;5074744;28;20044;-66
2022/04/30 14:21:26;;;;;;;16.48;7.78;;;;;;;;;;5074523;28;20129;-66
2022/04/30 14:23:53;;;;;;;16.15;7.97;;;;;;;;;;5074653;28;20041;-70
2022/04/30 14:26:19;;;;;;;;;;;;;;;;;;5074099;28;20080;-68
2022/04/30 14:28:45;;;;;;;13.85;8.32;;;;;;;;;;5074657;28;20394;-70
2022/04/30 14:31:12;;;;;;;22.10;9.82;;;;;;;;;;5074875;28;20400;-70
2022/04/30 14:33:38;;;;;;;16.85;9.02;;;;;;;;;;5073643;28;20048;-67
2022/04/30 14:36:10;;;;;;;16.42;8.93;;;;;;;;;;5074929;28;20044;-69
2022/04/30 14:38:37;;;;;;;18.83;9.48;;;;;;;;;;5074484;28;20058;-67
2022/04/30 14:41:04;;;;;;;20.67;10.70;;;;;;;;;;5073189;28;20055;-68
2022/04/30 14:43:31;;;;;;;16.75;9.35;;;;;;;;;;5074377;28;20059;-68
2022/04/30 14:45:58;;;;;;;16.33;9.05;;;;;;;;;;5074790;28;20048;-68
2022/04/30 14:48:24;;;;;;;15.60;8.88;;;;;;;;;;5074868;28;20048;-67
2022/04/30 14:50:50;;;;;;;17.35;8.50;;;;;;;;;;5074145;28;20064;-68
2022/04/30 14:53:16;;;;;;;14.52;7.57;;;;;;;;;;5074220;28;20047;-67
2022/04/30 14:55:43;;;;;;;17.75;7.68;;;;;;;;;;5057220;28;20040;-68
2022/04/30 14:58:09;;;;;;;15.57;7.97;;;;;;;;;;5074261;28;20099;-67
2022/04/30 15:00:35;;;;;;;16.92;7.28;;;;;;;;;;5074276;28;20080;-68
2022/04/30 15:03:01;;;;;;;14.85;6.97;;;;;;;;;;5072902;28;20048;-67
2022/04/30 15:05:27;;;;;;;17.83;6.85;;;;;;;;;;5073100;28;20048;-68
2022/04/30 15:07:53;;;;;;;15.40;7.75;;;;;;;;;;5073848;28;20052;-68
2022/04/30 15:10:19;;;;;;;13.77;6.65;;;;;;;;;;5056384;28;20044;-67
2022/04/30 15:12:45;;;;;;;15.48;7.35;;;;;;;;;;5073979;28;20075;-67
2022/04/30 15:15:11;;;;;;;13.02;6.80;;;;;;;;;;5073605;28;20365;-67
2022/04/30 15:17:38;;;;;;;15.75;7.10;;;;;;;;;;5074115;28;20127;-70